Accueil
METAR-TAF:

METAR-TAF

Aéroports :

Sault Ste. Marie, Michigan, États-Unis

latitude: 46-15N, longitude: 084-28W, altitude: 244 m

Observation

Le bulletin a été fait il y a 36 minutes, à 07:23 UTC
Vent 7 kt de est/nord-est
Température 8°C
Humidité 100%
Pression 1012 hPa
Visibilité: 16.1 km
Nuages fragmentés à une hauteur de 500 ft
Ciel couvert à une hauteur de 1500 ft
pluie faible

METAR: KCIU 210723Z AUTO 07007KT 10SM -RA BKN005 OVC015 08/08 A2988 RMK AO2 CIG 004V007 P0001

Heure: 03:59 (07:59 UTC)


TAF: absent

Observations et prévisions météorologiques de plus de 4000 aéroports (messages METAR et TAF).

Les stations disponibles sont représentées par des disques jaunes et rouges sur la carte.

Passer la souris dessus pour voir le nom de la station.

Cliquer dessus pour voir les observations et prévisions météorologiques.

Pour changer de carte: cliquez sur les boutons verts avec une croix noire pour zoomer, sur le bouton vert avec un tiret pour effectuer un zoom arrière, ou sur les flèches vertes pour les cartes adjacentes.


METAR-TAF: